sensor_id;sensor_type;location;lat;lon;timestamp;pressure;altitude;pressure_sealevel;temperature;humidity
21902;BME280;11115;46.038;14.612;2022-10-16T00:00:06;98852.69;;;10.99;100.00
21902;BME280;11115;46.038;14.612;2022-10-16T00:02:35;98853.91;;;10.92;100.00
21902;BME280;11115;46.038;14.612;2022-10-16T00:05:05;98859.28;;;11.03;100.00
21902;BME280;11115;46.038;14.612;2022-10-16T00:07:42;98856.31;;;11.13;100.00
21902;BME280;11115;46.038;14.612;2022-10-16T00:10:18;98856.00;;;11.14;100.00
21902;BME280;11115;46.038;14.612;2022-10-16T00:12:47;98863.75;;;10.99;100.00
21902;BME280;11115;46.038;14.612;2022-10-16T00:15:20;98859.28;;;11.03;100.00
21902;BME280;11115;46.038;14.612;2022-10-16T00:17:55;98866.47;;;11.04;100.00
21902;BME280;11115;46.038;14.612;2022-10-16T00:20:26;98867.41;;;11.13;100.00
21902;BME280;11115;46.038;14.612;2022-10-16T00:22:59;98864.41;;;11.09;100.00
21902;BME280;11115;46.038;14.612;2022-10-16T00:25:45;98860.81;;;11.09;100.00
21902;BME280;11115;46.038;14.612;2022-10-16T00:28:21;98861.13;;;11.07;100.00
21902;BME280;11115;46.038;14.612;2022-10-16T00:30:53;98853.75;;;11.16;100.00
21902;BME280;11115;46.038;14.612;2022-10-16T00:33:27;98857.91;;;11.19;100.00
21902;BME280;11115;46.038;14.612;2022-10-16T00:35:57;98864.31;;;11.14;100.00
21902;BME280;11115;46.038;14.612;2022-10-16T00:38:26;98865.84;;;11.07;100.00
21902;BME280;11115;46.038;14.612;2022-10-16T00:40:59;98866.63;;;10.93;100.00
21902;BME280;11115;46.038;14.612;2022-10-16T00:46:03;98866.34;;;10.76;100.00
21902;BME280;11115;46.038;14.612;2022-10-16T00:48:34;98883.84;;;10.53;100.00
21902;BME280;11115;46.038;14.612;2022-10-16T00:51:05;98883.53;;;10.36;100.00
21902;BME280;11115;46.038;14.612;2022-10-16T00:53:33;98885.72;;;10.57;100.00
21902;BME280;11115;46.038;14.612;2022-10-16T00:56:06;98892.38;;;10.75;100.00
21902;BME280;11115;46.038;14.612;2022-10-16T00:58:37;98887.97;;;10.74;100.00
21902;BME280;11115;46.038;14.612;2022-10-16T01:01:12;98891.25;;;10.76;100.00
21902;BME280;11115;46.038;14.612;2022-10-16T01:03:45;98894.78;;;10.82;100.00
21902;BME280;11115;46.038;14.612;2022-10-16T01:06:52;98890.06;;;10.82;100.00
21902;BME280;11115;46.038;14.612;2022-10-16T01:12:10;98893.47;;;10.93;100.00
21902;BME280;11115;46.038;14.612;2022-10-16T01:14:48;98895.13;;;10.94;100.00
21902;BME280;11115;46.038;14.612;2022-10-16T01:17:20;98829.88;;;10.55;100.00
21902;BME280;11115;46.038;14.612;2022-10-16T01:25:27;98891.53;;;10.93;100.00
21902;BME280;11115;46.038;14.612;2022-10-16T01:28:01;98890.84;;;11.02;100.00
21902;BME280;11115;46.038;14.612;2022-10-16T01:30:36;98891.38;;;11.04;100.00
21902;BME280;11115;46.038;14.612;2022-10-16T01:35:59;98899.63;;;10.90;100.00
21902;BME280;11115;46.038;14.612;2022-10-16T01:38:36;98897.66;;;10.90;100.00
21902;BME280;11115;46.038;14.612;2022-10-16T01:41:22;98900.03;;;10.97;100.00
21902;BME280;11115;46.038;14.612;2022-10-16T01:46:41;98901.50;;;10.76;100.00
21902;BME280;11115;46.038;14.612;2022-10-16T01:49:16;98898.38;;;10.82;100.00
21902;BME280;11115;46.038;14.612;2022-10-16T01:51:49;98901.25;;;10.91;100.00
21902;BME280;11115;46.038;14.612;2022-10-16T01:54:20;98908.59;;;11.01;100.00
21902;BME280;11115;46.038;14.612;2022-10-16T01:56:54;98916.06;;;11.00;100.00
21902;BME280;11115;46.038;14.612;2022-10-16T01:59:25;98913.06;;;10.97;100.00
21902;BME280;11115;46.038;14.612;2022-10-16T02:01:55;98917.56;;;10.92;100.00
21902;BME280;11115;46.038;14.612;2022-10-16T02:04:53;98917.94;;;10.86;100.00
21902;BME280;11115;46.038;14.612;2022-10-16T02:07:27;98919.59;;;10.87;100.00
21902;BME280;11115;46.038;14.612;2022-10-16T02:09:59;98920.03;;;10.94;100.00
21902;BME280;11115;46.038;14.612;2022-10-16T02:12:29;98914.50;;;10.94;100.00
21902;BME280;11115;46.038;14.612;2022-10-16T02:14:59;98915.84;;;10.78;100.00
21902;BME280;11115;46.038;14.612;2022-10-16T02:17:36;98918.25;;;10.66;100.00
21902;BME280;11115;46.038;14.612;2022-10-16T02:20:05;98918.19;;;10.71;100.00
21902;BME280;11115;46.038;14.612;2022-10-16T02:22:38;98923.56;;;10.81;100.00
21902;BME280;11115;46.038;14.612;2022-10-16T02:25:10;98919.41;;;10.97;100.00
21902;BME280;11115;46.038;14.612;2022-10-16T02:28:01;98929.03;;;10.86;100.00
21902;BME280;11115;46.038;14.612;2022-10-16T02:30:55;98925.44;;;10.85;100.00
21902;BME280;11115;46.038;14.612;2022-10-16T02:33:25;98936.59;;;10.80;100.00
21902;BME280;11115;46.038;14.612;2022-10-16T02:35:57;98922.28;;;10.73;100.00
21902;BME280;11115;46.038;14.612;2022-10-16T02:38:44;98928.22;;;10.67;100.00
21902;BME280;11115;46.038;14.612;2022-10-16T02:41:15;98936.13;;;10.73;100.00
21902;BME280;11115;46.038;14.612;2022-10-16T02:43:46;98932.75;;;10.76;100.00
21902;BME280;11115;46.038;14.612;2022-10-16T02:46:31;98935.53;;;10.76;100.00
21902;BME280;11115;46.038;14.612;2022-10-16T02:49:01;98930.81;;;10.77;100.00
21902;BME280;11115;46.038;14.612;2022-10-16T02:51:40;98938.66;;;10.70;100.00
21902;BME280;11115;46.038;14.612;2022-10-16T02:54:12;98942.38;;;10.60;100.00
21902;BME280;11115;46.038;14.612;2022-10-16T02:56:42;98947.66;;;10.61;100.00
21902;BME280;11115;46.038;14.612;2022-10-16T02:59:26;98938.66;;;10.70;100.00
21902;BME280;11115;46.038;14.612;2022-10-16T03:02:04;98945.03;;;10.70;100.00
21902;BME280;11115;46.038;14.612;2022-10-16T03:04:33;98949.88;;;10.78;100.00
21902;BME280;11115;46.038;14.612;2022-10-16T03:07:04;98950.03;;;10.87;100.00
21902;BME280;11115;46.038;14.612;2022-10-16T03:09:38;98942.94;;;10.81;100.00
21902;BME280;11115;46.038;14.612;2022-10-16T03:12:11;98948.31;;;10.91;100.00
21902;BME280;11115;46.038;14.612;2022-10-16T03:14:54;98947.78;;;10.89;100.00
21902;BME280;11115;46.038;14.612;2022-10-16T03:17:26;98948.53;;;10.76;100.00
21902;BME280;11115;46.038;14.612;2022-10-16T03:20:09;98944.59;;;10.82;100.00
21902;BME280;11115;46.038;14.612;2022-10-16T03:22:40;98949.59;;;10.80;100.00
21902;BME280;11115;46.038;14.612;2022-10-16T03:25:10;98954.28;;;10.79;100.00
21902;BME280;11115;46.038;14.612;2022-10-16T03:27:43;98954.88;;;10.95;100.00
21902;BME280;11115;46.038;14.612;2022-10-16T03:30:12;98961.94;;;10.69;100.00
21902;BME280;11115;46.038;14.612;2022-10-16T03:32:56;98956.28;;;10.55;100.00
21902;BME280;11115;46.038;14.612;2022-10-16T03:35:34;98956.22;;;10.60;100.00
21902;BME280;11115;46.038;14.612;2022-10-16T03:38:11;98951.81;;;10.59;100.00
21902;BME280;11115;46.038;14.612;2022-10-16T03:40:41;98962.84;;;10.64;100.00
21902;BME280;11115;46.038;14.612;2022-10-16T03:43:11;98964.25;;;10.61;100.00
21902;BME280;11115;46.038;14.612;2022-10-16T03:45:42;98967.88;;;10.57;100.00
21902;BME280;11115;46.038;14.612;2022-10-16T03:48:15;98965.06;;;10.62;100.00
21902;BME280;11115;46.038;14.612;2022-10-16T03:50:46;98966.13;;;10.66;100.00
21902;BME280;11115;46.038;14.612;2022-10-16T03:53:18;98956.78;;;10.62;100.00
21902;BME280;11115;46.038;14.612;2022-10-16T03:55:49;98967.84;;;10.62;100.00
21902;BME280;11115;46.038;14.612;2022-10-16T03:58:20;98971.94;;;10.64;100.00
21902;BME280;11115;46.038;14.612;2022-10-16T04:00:51;98974.53;;;10.56;100.00
21902;BME280;11115;46.038;14.612;2022-10-16T04:03:29;98968.13;;;10.60;100.00
21902;BME280;11115;46.038;14.612;2022-10-16T04:06:01;98977.19;;;10.66;100.00
21902;BME280;11115;46.038;14.612;2022-10-16T04:08:39;98973.13;;;10.77;100.00
21902;BME280;11115;46.038;14.612;2022-10-16T04:11:12;98974.41;;;10.66;100.00
21902;BME280;11115;46.038;14.612;2022-10-16T04:13:47;98972.63;;;10.75;100.00
21902;BME280;11115;46.038;14.612;2022-10-16T04:16:18;98978.31;;;10.65;100.00
21902;BME280;11115;46.038;14.612;2022-10-16T04:18:55;98977.91;;;10.53;100.00
21902;BME280;11115;46.038;14.612;2022-10-16T04:21:31;98973.78;;;10.50;100.00
21902;BME280;11115;46.038;14.612;2022-10-16T04:24:01;98984.34;;;10.48;100.00
21902;BME280;11115;46.038;14.612;2022-10-16T04:26:33;98975.66;;;10.55;100.00
21902;BME280;11115;46.038;14.612;2022-10-16T04:29:04;98984.34;;;10.48;100.00
21902;BME280;11115;46.038;14.612;2022-10-16T04:31:36;98978.41;;;10.36;100.00
21902;BME280;11115;46.038;14.612;2022-10-16T04:34:05;98975.59;;;10.41;100.00
21902;BME280;11115;46.038;14.612;2022-10-16T04:36:49;98975.22;;;10.48;100.00
21902;BME280;11115;46.038;14.612;2022-10-16T04:39:26;98979.94;;;10.18;100.00
21902;BME280;11115;46.038;14.612;2022-10-16T04:41:58;98982.16;;;10.21;100.00
21902;BME280;11115;46.038;14.612;2022-10-16T04:44:35;98976.97;;;10.39;100.00
21902;BME280;11115;46.038;14.612;2022-10-16T04:47:09;98986.00;;;10.20;100.00
21902;BME280;11115;46.038;14.612;2022-10-16T04:49:45;98986.00;;;10.20;100.00
21902;BME280;11115;46.038;14.612;2022-10-16T04:52:13;98987.13;;;10.24;100.00
21902;BME280;11115;46.038;14.612;2022-10-16T04:54:43;98994.53;;;10.29;100.00
21902;BME280;11115;46.038;14.612;2022-10-16T04:57:20;98988.47;;;10.27;100.00
21902;BME280;11115;46.038;14.612;2022-10-16T04:59:54;98992.94;;;10.23;100.00
21902;BME280;11115;46.038;14.612;2022-10-16T05:02:30;98980.34;;;10.36;100.00
21902;BME280;11115;46.038;14.612;2022-10-16T05:05:05;98980.75;;;10.48;100.00
21902;BME280;11115;46.038;14.612;2022-10-16T05:07:36;98972.03;;;10.36;100.00
21902;BME280;11115;46.038;14.612;2022-10-16T05:10:22;98975.47;;;10.27;100.00
21902;BME280;11115;46.038;14.612;2022-10-16T05:13:01;98978.84;;;10.24;100.00
21902;BME280;11115;46.038;14.612;2022-10-16T05:15:35;98983.84;;;10.17;100.00
21902;BME280;11115;46.038;14.612;2022-10-16T05:18:10;98981.44;;;10.11;100.00
21902;BME280;11115;46.038;14.612;2022-10-16T05:20:46;98982.56;;;10.10;100.00
21902;BME280;11115;46.038;14.612;2022-10-16T05:23:19;98984.13;;;10.16;100.00
21902;BME280;11115;46.038;14.612;2022-10-16T05:26:03;98983.91;;;10.12;100.00
21902;BME280;11115;46.038;14.612;2022-10-16T05:28:34;98991.91;;;10.14;100.00
21902;BME280;11115;46.038;14.612;2022-10-16T05:31:09;98999.91;;;10.15;100.00
21902;BME280;11115;46.038;14.612;2022-10-16T05:33:38;98993.78;;;10.23;100.00
21902;BME280;11115;46.038;14.612;2022-10-16T05:36:12;99000.50;;;10.12;100.00
21902;BME280;11115;46.038;14.612;2022-10-16T05:38:51;98997.13;;;10.15;100.00
21902;BME280;11115;46.038;14.612;2022-10-16T05:41:19;99002.13;;;10.13;100.00
21902;BME280;11115;46.038;14.612;2022-10-16T05:43:54;99007.44;;;10.10;100.00
21902;BME280;11115;46.038;14.612;2022-10-16T05:46:25;99009.81;;;10.21;100.00
21902;BME280;11115;46.038;14.612;2022-10-16T05:48:56;99008.66;;;10.27;100.00
21902;BME280;11115;46.038;14.612;2022-10-16T05:51:27;99001.19;;;9.99;100.00
21902;BME280;11115;46.038;14.612;2022-10-16T05:53:58;99001.69;;;10.06;100.00
21902;BME280;11115;46.038;14.612;2022-10-16T05:56:28;99017.00;;;10.22;100.00
21902;BME280;11115;46.038;14.612;2022-10-16T05:58:59;99017.31;;;10.16;100.00
21902;BME280;11115;46.038;14.612;2022-10-16T06:01:28;99024.19;;;10.18;100.00
21902;BME280;11115;46.038;14.612;2022-10-16T06:04:08;99021.25;;;10.10;100.00
21902;BME280;11115;46.038;14.612;2022-10-16T06:06:54;99027.31;;;10.12;100.00
21902;BME280;11115;46.038;14.612;2022-10-16T06:09:30;99029.34;;;10.30;100.00
21902;BME280;11115;46.038;14.612;2022-10-16T06:12:01;99028.66;;;10.14;100.00
21902;BME280;11115;46.038;14.612;2022-10-16T06:14:41;99036.38;;;10.17;100.00
21902;BME280;11115;46.038;14.612;2022-10-16T06:17:15;99042.78;;;10.13;100.00
21902;BME280;11115;46.038;14.612;2022-10-16T06:19:52;99045.63;;;10.08;100.00
21902;BME280;11115;46.038;14.612;2022-10-16T06:22:21;99055.50;;;10.14;100.00
21902;BME280;11115;46.038;14.612;2022-10-16T06:24:55;99059.25;;;10.28;100.00
21902;BME280;11115;46.038;14.612;2022-10-16T06:27:24;99068.91;;;10.30;100.00
21902;BME280;11115;46.038;14.612;2022-10-16T06:29:54;99069.56;;;10.17;100.00
21902;BME280;11115;46.038;14.612;2022-10-16T06:32:25;99079.25;;;10.15;100.00
21902;BME280;11115;46.038;14.612;2022-10-16T06:35:01;99067.78;;;10.31;100.00
21902;BME280;11115;46.038;14.612;2022-10-16T06:37:30;99070.97;;;10.15;100.00
21902;BME280;11115;46.038;14.612;2022-10-16T06:40:00;99084.03;;;10.09;100.00
21902;BME280;11115;46.038;14.612;2022-10-16T06:42:31;99086.72;;;10.14;100.00
21902;BME280;11115;46.038;14.612;2022-10-16T06:45:15;99085.84;;;10.19;100.00
21902;BME280;11115;46.038;14.612;2022-10-16T06:47:43;99086.56;;;10.00;100.00
21902;BME280;11115;46.038;14.612;2022-10-16T06:50:14;99088.38;;;10.15;100.00
21902;BME280;11115;46.038;14.612;2022-10-16T06:52:43;99091.50;;;10.38;100.00
21902;BME280;11115;46.038;14.612;2022-10-16T06:55:14;99099.31;;;10.30;100.00
21902;BME280;11115;46.038;14.612;2022-10-16T06:57:46;99101.44;;;10.39;100.00
21902;BME280;11115;46.038;14.612;2022-10-16T07:00:21;99103.56;;;10.23;100.00
21902;BME280;11115;46.038;14.612;2022-10-16T07:02:54;99110.44;;;10.20;100.00
21902;BME280;11115;46.038;14.612;2022-10-16T07:05:41;99101.31;;;10.25;100.00
21902;BME280;11115;46.038;14.612;2022-10-16T07:08:19;99113.78;;;10.22;100.00
21902;BME280;11115;46.038;14.612;2022-10-16T07:10:57;99105.16;;;10.53;100.00
21902;BME280;11115;46.038;14.612;2022-10-16T07:13:28;99102.63;;;10.56;100.00
21902;BME280;11115;46.038;14.612;2022-10-16T07:16:11;99106.06;;;10.48;100.00
21902;BME280;11115;46.038;14.612;2022-10-16T07:18:43;99113.69;;;10.56;100.00
21902;BME280;11115;46.038;14.612;2022-10-16T07:21:29;99107.81;;;10.63;100.00
21902;BME280;11115;46.038;14.612;2022-10-16T07:24:04;99100.28;;;10.69;100.00
21902;BME280;11115;46.038;14.612;2022-10-16T07:26:44;99096.09;;;10.71;100.00
21902;BME280;11115;46.038;14.612;2022-10-16T07:29:19;99093.53;;;10.80;100.00
21902;BME280;11115;46.038;14.612;2022-10-16T07:31:48;99100.38;;;10.34;100.00
21902;BME280;11115;46.038;14.612;2022-10-16T07:34:24;99103.44;;;10.57;100.00
21902;BME280;11115;46.038;14.612;2022-10-16T07:36:54;99102.41;;;10.53;100.00
21902;BME280;11115;46.038;14.612;2022-10-16T07:39:27;99105.00;;;10.68;100.00
21902;BME280;11115;46.038;14.612;2022-10-16T07:42:00;99110.75;;;10.48;100.00
21902;BME280;11115;46.038;14.612;2022-10-16T07:44:29;99120.00;;;10.62;100.00
21902;BME280;11115;46.038;14.612;2022-10-16T07:47:00;99120.25;;;10.66;100.00
21902;BME280;11115;46.038;14.612;2022-10-16T07:49:31;99133.56;;;10.87;100.00
21902;BME280;11115;46.038;14.612;2022-10-16T07:52:03;99139.34;;;11.10;100.00
21902;BME280;11115;46.038;14.612;2022-10-16T07:54:33;99144.47;;;11.21;100.00
21902;BME280;11115;46.038;14.612;2022-10-16T07:57:03;99149.97;;;11.03;100.00
21902;BME280;11115;46.038;14.612;2022-10-16T07:59:34;99151.72;;;11.17;100.00
21902;BME280;11115;46.038;14.612;2022-10-16T08:02:07;99158.63;;;11.20;100.00
21902;BME280;11115;46.038;14.612;2022-10-16T08:04:46;99156.78;;;11.10;100.00
21902;BME280;11115;46.038;14.612;2022-10-16T08:07:21;99158.75;;;11.10;100.00
21902;BME280;11115;46.038;14.612;2022-10-16T08:09:52;99158.16;;;11.13;100.00
21902;BME280;11115;46.038;14.612;2022-10-16T08:12:25;99162.78;;;11.17;100.00
21902;BME280;11115;46.038;14.612;2022-10-16T08:14:55;99171.91;;;11.18;100.00
21902;BME280;11115;46.038;14.612;2022-10-16T08:17:26;99176.81;;;11.26;100.00
21902;BME280;11115;46.038;14.612;2022-10-16T08:20:01;99178.31;;;11.37;100.00
21902;BME280;11115;46.038;14.612;2022-10-16T08:22:32;99182.81;;;11.33;100.00
21902;BME280;11115;46.038;14.612;2022-10-16T08:25:03;99178.06;;;11.39;100.00
21902;BME280;11115;46.038;14.612;2022-10-16T08:27:38;99177.59;;;11.50;100.00
21902;BME280;11115;46.038;14.612;2022-10-16T08:30:09;99179.09;;;11.43;100.00
21902;BME280;11115;46.038;14.612;2022-10-16T08:32:47;99187.72;;;11.41;100.00
21902;BME280;11115;46.038;14.612;2022-10-16T08:35:17;99182.09;;;11.46;100.00
21902;BME280;11115;46.038;14.612;2022-10-16T08:37:45;99183.75;;;11.47;100.00
21902;BME280;11115;46.038;14.612;2022-10-16T08:40:31;99186.13;;;11.54;100.00
21902;BME280;11115;46.038;14.612;2022-10-16T08:43:24;99182.78;;;11.57;100.00
21902;BME280;11115;46.038;14.612;2022-10-16T08:48:52;99177.16;;;11.43;100.00
21902;BME280;11115;46.038;14.612;2022-10-16T08:51:29;99169.19;;;11.37;100.00
21902;BME280;11115;46.038;14.612;2022-10-16T08:54:26;99172.50;;;11.39;100.00
21902;BME280;11115;46.038;14.612;2022-10-16T08:57:20;99170.47;;;11.44;100.00
21902;BME280;11115;46.038;14.612;2022-10-16T09:00:01;99171.31;;;11.64;100.00
21902;BME280;11115;46.038;14.612;2022-10-16T09:02:39;99173.72;;;11.89;100.00
21902;BME280;11115;46.038;14.612;2022-10-16T09:05:29;99179.44;;;11.98;100.00
21902;BME280;11115;46.038;14.612;2022-10-16T09:11:07;99178.00;;;12.00;100.00
21902;BME280;11115;46.038;14.612;2022-10-16T09:16:28;99176.16;;;11.96;100.00
21902;BME280;11115;46.038;14.612;2022-10-16T09:21:59;99177.69;;;11.64;100.00
21902;BME280;11115;46.038;14.612;2022-10-16T09:24:38;99183.69;;;11.90;100.00
21902;BME280;11115;46.038;14.612;2022-10-16T09:27:14;99176.19;;;12.09;100.00
21902;BME280;11115;46.038;14.612;2022-10-16T09:29:44;99176.88;;;12.34;100.00
21902;BME280;11115;46.038;14.612;2022-10-16T09:32:19;99172.34;;;12.70;100.00
21902;BME280;11115;46.038;14.612;2022-10-16T09:34:50;99175.97;;;12.85;100.00
21902;BME280;11115;46.038;14.612;2022-10-16T09:37:37;99170.38;;;12.71;100.00
21902;BME280;11115;46.038;14.612;2022-10-16T09:40:11;99184.41;;;13.07;100.00
21902;BME280;11115;46.038;14.612;2022-10-16T09:42:40;99182.97;;;13.10;100.00
21902;BME280;11115;46.038;14.612;2022-10-16T09:45:21;99181.84;;;12.97;100.00
21902;BME280;11115;46.038;14.612;2022-10-16T09:47:54;99181.66;;;13.21;100.00
21902;BME280;11115;46.038;14.612;2022-10-16T09:50:26;99178.06;;;13.34;100.00
21902;BME280;11115;46.038;14.612;2022-10-16T09:53:10;99181.75;;;13.16;100.00
21902;BME280;11115;46.038;14.612;2022-10-16T09:55:51;99185.78;;;13.23;100.00
21902;BME280;11115;46.038;14.612;2022-10-16T09:58:22;99187.09;;;13.40;100.00
21902;BME280;11115;46.038;14.612;2022-10-16T10:00:53;99184.41;;;13.48;100.00
21902;BME280;11115;46.038;14.612;2022-10-16T10:03:39;99180.56;;;14.08;100.00
21902;BME280;11115;46.038;14.612;2022-10-16T10:11:54;99178.31;;;14.85;100.00
21902;BME280;11115;46.038;14.612;2022-10-16T10:35:49;99124.81;;;16.79;100.00
21902;BME280;11115;46.038;14.612;2022-10-16T10:38:48;99118.97;;;16.92;100.00
21902;BME280;11115;46.038;14.612;2022-10-16T10:47:31;99110.28;;;18.15;100.00
21902;BME280;11115;46.038;14.612;2022-10-16T10:55:52;99102.28;;;18.05;100.00
21902;BME280;11115;46.038;14.612;2022-10-16T10:58:52;99094.66;;;18.27;100.00
21902;BME280;11115;46.038;14.612;2022-10-16T11:01:45;99099.22;;;18.64;100.00
21902;BME280;11115;46.038;14.612;2022-10-16T11:04:25;99088.75;;;18.73;100.00
21902;BME280;11115;46.038;14.612;2022-10-16T11:07:18;99086.91;;;18.90;100.00
21902;BME280;11115;46.038;14.612;2022-10-16T11:09:53;99085.84;;;19.31;100.00
21902;BME280;11115;46.038;14.612;2022-10-16T11:12:34;99086.28;;;19.33;100.00
21902;BME280;11115;46.038;14.612;2022-10-16T11:15:13;99078.53;;;19.66;100.00
21902;BME280;11115;46.038;14.612;2022-10-16T11:18:00;99068.69;;;22.51;100.00
21902;BME280;11115;46.038;14.612;2022-10-16T11:20:34;99065.28;;;24.98;100.00
21902;BME280;11115;46.038;14.612;2022-10-16T11:23:38;99060.97;;;26.71;93.64
21902;BME280;11115;46.038;14.612;2022-10-16T11:26:19;99063.34;;;26.40;84.13
21902;BME280;11115;46.038;14.612;2022-10-16T11:28:54;99059.72;;;26.43;83.71
21902;BME280;11115;46.038;14.612;2022-10-16T11:31:39;99061.97;;;23.81;100.00
21902;BME280;11115;46.038;14.612;2022-10-16T11:34:39;99061.69;;;24.60;91.73
21902;BME280;11115;46.038;14.612;2022-10-16T11:37:16;99052.56;;;22.29;100.00
21902;BME280;11115;46.038;14.612;2022-10-16T11:39:52;99054.44;;;21.12;100.00
21902;BME280;11115;46.038;14.612;2022-10-16T11:42:37;99052.69;;;21.24;100.00
21902;BME280;11115;46.038;14.612;2022-10-16T11:51:26;99039.19;;;21.29;100.00
21902;BME280;11115;46.038;14.612;2022-10-16T11:54:05;99042.28;;;21.24;100.00
21902;BME280;11115;46.038;14.612;2022-10-16T11:56:41;99036.44;;;21.33;100.00
21902;BME280;11115;46.038;14.612;2022-10-16T12:02:17;99050.06;;;21.66;100.00
21902;BME280;11115;46.038;14.612;2022-10-16T12:07:55;99039.91;;;25.67;100.00
21902;BME280;11115;46.038;14.612;2022-10-16T12:10:30;99035.31;;;27.99;75.21
21902;BME280;11115;46.038;14.612;2022-10-16T12:13:04;99026.81;;;28.65;68.17
21902;BME280;11115;46.038;14.612;2022-10-16T12:15:33;99029.88;;;28.92;67.57
21902;BME280;11115;46.038;14.612;2022-10-16T12:18:23;99019.75;;;30.11;65.14
21902;BME280;11115;46.038;14.612;2022-10-16T12:20:59;99020.09;;;29.79;64.53
21902;BME280;11115;46.038;14.612;2022-10-16T12:23:54;99020.50;;;28.98;61.76
21902;BME280;11115;46.038;14.612;2022-10-16T12:26:28;99019.38;;;28.82;65.83
21902;BME280;11115;46.038;14.612;2022-10-16T12:31:52;99014.22;;;27.86;67.58
21902;BME280;11115;46.038;14.612;2022-10-16T12:37:07;99009.75;;;24.79;97.07
21902;BME280;11115;46.038;14.612;2022-10-16T12:39:39;99012.13;;;24.73;100.00
21902;BME280;11115;46.038;14.612;2022-10-16T12:45:12;99003.97;;;29.24;68.05
21902;BME280;11115;46.038;14.612;2022-10-16T12:47:48;99003.59;;;29.97;63.71
21902;BME280;11115;46.038;14.612;2022-10-16T12:50:38;99008.66;;;30.16;61.06
21902;BME280;11115;46.038;14.612;2022-10-16T12:53:22;99001.19;;;30.53;59.28
21902;BME280;11115;46.038;14.612;2022-10-16T13:04:31;99003.81;;;28.97;65.91
21902;BME280;11115;46.038;14.612;2022-10-16T13:18:54;99017.53;;;29.88;56.41
21902;BME280;11115;46.038;14.612;2022-10-16T13:21:31;99018.34;;;27.60;67.40
21902;BME280;11115;46.038;14.612;2022-10-16T13:24:04;99021.16;;;26.24;82.48
21902;BME280;11115;46.038;14.612;2022-10-16T13:26:57;99013.75;;;25.91;84.20
21902;BME280;11115;46.038;14.612;2022-10-16T13:29:34;99019.53;;;25.43;86.34
21902;BME280;11115;46.038;14.612;2022-10-16T13:32:09;99021.22;;;23.82;99.24
21902;BME280;11115;46.038;14.612;2022-10-16T13:35:15;99017.66;;;23.88;100.00
21902;BME280;11115;46.038;14.612;2022-10-16T13:37:46;99022.50;;;24.21;100.00
21902;BME280;11115;46.038;14.612;2022-10-16T13:40:24;99017.06;;;23.72;100.00
21902;BME280;11115;46.038;14.612;2022-10-16T13:42:59;99024.28;;;23.70;100.00
21902;BME280;11115;46.038;14.612;2022-10-16T13:45:29;99025.00;;;23.10;100.00
21902;BME280;11115;46.038;14.612;2022-10-16T13:48:09;99016.16;;;23.12;100.00
21902;BME280;11115;46.038;14.612;2022-10-16T13:50:40;99017.38;;;23.37;100.00
21902;BME280;11115;46.038;14.612;2022-10-16T13:53:14;99023.53;;;23.73;100.00
21902;BME280;11115;46.038;14.612;2022-10-16T13:55:41;99025.59;;;23.76;100.00
21902;BME280;11115;46.038;14.612;2022-10-16T13:58:19;99015.34;;;23.64;100.00
21902;BME280;11115;46.038;14.612;2022-10-16T14:00:58;99025.31;;;23.31;100.00
21902;BME280;11115;46.038;14.612;2022-10-16T14:03:46;99023.81;;;23.11;100.00
21902;BME280;11115;46.038;14.612;2022-10-16T14:06:21;99019.34;;;23.93;100.00
21902;BME280;11115;46.038;14.612;2022-10-16T14:11:51;99015.53;;;24.93;100.00
21902;BME280;11115;46.038;14.612;2022-10-16T14:14:42;99017.88;;;26.12;100.00
21902;BME280;11115;46.038;14.612;2022-10-16T14:17:25;99016.00;;;27.15;98.65
21902;BME280;11115;46.038;14.612;2022-10-16T14:19:59;99022.88;;;27.14;93.78
21902;BME280;11115;46.038;14.612;2022-10-16T14:22:41;99022.19;;;25.15;100.00
21902;BME280;11115;46.038;14.612;2022-10-16T14:25:26;99033.44;;;23.59;100.00
21902;BME280;11115;46.038;14.612;2022-10-16T14:27:59;99029.16;;;22.93;100.00
21902;BME280;11115;46.038;14.612;2022-10-16T14:30:31;99037.25;;;22.07;100.00
21902;BME280;11115;46.038;14.612;2022-10-16T14:33:00;99035.69;;;21.90;100.00
21902;BME280;11115;46.038;14.612;2022-10-16T14:38:18;99033.38;;;21.96;100.00
21902;BME280;11115;46.038;14.612;2022-10-16T14:40:47;99035.38;;;21.76;100.00
21902;BME280;11115;46.038;14.612;2022-10-16T14:43:26;99035.22;;;21.69;100.00
21902;BME280;11115;46.038;14.612;2022-10-16T14:46:02;99038.59;;;21.39;100.00
21902;BME280;11115;46.038;14.612;2022-10-16T14:48:34;99044.09;;;21.01;100.00
21902;BME280;11115;46.038;14.612;2022-10-16T14:51:11;99046.13;;;20.84;100.00
21902;BME280;11115;46.038;14.612;2022-10-16T14:53:46;99039.03;;;20.59;100.00
21902;BME280;11115;46.038;14.612;2022-10-16T14:56:33;99037.38;;;20.42;100.00
21902;BME280;11115;46.038;14.612;2022-10-16T14:59:18;99040.78;;;20.36;100.00
21902;BME280;11115;46.038;14.612;2022-10-16T15:02:16;99044.09;;;20.10;100.00
21902;BME280;11115;46.038;14.612;2022-10-16T15:04:50;99041.66;;;20.24;100.00
21902;BME280;11115;46.038;14.612;2022-10-16T15:07:20;99040.25;;;19.86;100.00
21902;BME280;11115;46.038;14.612;2022-10-16T15:09:50;99038.41;;;19.66;100.00
21902;BME280;11115;46.038;14.612;2022-10-16T15:12:22;99047.06;;;19.73;100.00
21902;BME280;11115;46.038;14.612;2022-10-16T15:14:52;99052.81;;;19.64;100.00
21902;BME280;11115;46.038;14.612;2022-10-16T15:17:23;99048.91;;;19.29;100.00